Time;durP1;ratioP1;P1;durP2;ratioP2;P2;SDS_P1;SDS_P2;PMS_P1;PMS_P2;Temp;Humidity;BMP_temperature;BMP_pressure;BME280_temperature;BME280_humidity;BME280_pressure;Samples;Min_cycle;Max_cycle;Signal;HPM_P1;HPM_P2
2024/02/12 00:01:22;;;;;;;2.25;1.25;;;22.50;36.20;;;;;;5072011;28;20571;-56
2024/02/12 00:03:49;;;;;;;3.00;1.42;;;22.50;36.20;;;;;;5072384;28;20218;-58
2024/02/12 00:06:17;;;;;;;3.60;1.33;;;22.40;36.20;;;;;;5072006;28;20641;-58
2024/02/12 00:08:44;;;;;;;4.57;1.35;;;22.40;36.20;;;;;;5072341;28;20214;-57
2024/02/12 00:11:10;;;;;;;5.00;1.38;;;22.40;36.20;;;;;;5072272;28;20198;-56
2024/02/12 00:13:38;;;;;;;4.50;1.77;;;22.40;36.20;;;;;;5072181;28;20234;-57
2024/02/12 00:16:07;;;;;;;3.50;1.27;;;22.40;36.20;;;;;;5072311;28;20191;-58
2024/02/12 00:18:34;;;;;;;3.00;1.42;;;22.40;36.20;;;;;;5072204;28;20634;-57
2024/02/12 00:21:03;;;;;;;3.67;1.40;;;22.40;36.20;;;;;;5072371;28;20282;-58
2024/02/12 00:23:30;;;;;;;4.65;1.33;;;22.40;36.90;;;;;;5072110;28;20191;-55
2024/02/12 00:25:57;;;;;;;4.90;1.58;;;22.40;36.20;;;;;;5072108;28;20191;-56
2024/02/12 00:28:25;;;;;;;4.70;1.30;;;22.40;36.10;;;;;;5071633;28;20237;-56
2024/02/12 00:30:52;;;;;;;2.72;1.42;;;22.40;36.10;;;;;;5072001;28;20198;-58
2024/02/12 00:33:20;;;;;;;3.13;1.33;;;22.50;36.10;;;;;;5072103;28;20219;-56
2024/02/12 00:35:47;;;;;;;3.95;1.40;;;22.50;36.10;;;;;;5072931;28;20195;-56
2024/02/12 00:38:14;;;;;;;2.08;1.10;;;22.50;36.00;;;;;;5075662;28;20768;-54
2024/02/12 00:40:41;;;;;;;3.90;1.48;;;22.50;36.00;;;;;;5076155;28;20225;-56
2024/02/12 00:43:08;;;;;;;3.72;1.48;;;22.50;36.00;;;;;;5075794;28;20191;-58
2024/02/12 00:45:36;;;;;;;3.60;1.25;;;22.60;36.00;;;;;;5076029;28;20249;-58
2024/02/12 00:48:04;;;;;;;3.88;1.30;;;22.60;35.90;;;;;;5075720;28;20187;-59
2024/02/12 00:50:34;;;;;;;3.03;1.00;;;22.60;35.90;;;;;;5075611;28;20225;-56
2024/02/12 00:53:01;;;;;;;3.72;1.33;;;22.60;35.90;;;;;;5075519;28;20644;-57
2024/02/12 00:55:28;;;;;;;2.75;1.33;;;22.60;35.80;;;;;;5075818;28;20225;-56
2024/02/12 00:57:55;;;;;;;3.50;1.38;;;22.70;35.80;;;;;;5075271;28;20190;-56
2024/02/12 01:00:23;;;;;;;5.57;1.30;;;22.60;35.70;;;;;;5075987;28;20214;-54
2024/02/12 01:02:49;;;;;;;3.08;1.25;;;22.60;35.80;;;;;;5075460;28;20191;-56
2024/02/12 01:05:17;;;;;;;3.78;1.40;;;22.60;35.90;;;;;;5075638;28;20305;-54
2024/02/12 01:07:46;;;;;;;3.60;1.20;;;22.50;35.90;;;;;;5075477;28;20202;-55
2024/02/12 01:10:13;;;;;;;5.05;1.40;;;22.50;35.90;;;;;;5075251;28;20215;-56
2024/02/12 01:12:42;;;;;;;2.25;1.23;;;22.50;36.00;;;;;;5074929;28;20718;-56
2024/02/12 01:15:10;;;;;;;3.30;1.40;;;22.40;35.90;;;;;;5075411;28;20218;-58
2024/02/12 01:17:37;;;;;;;3.70;1.45;;;22.40;36.00;;;;;;5075199;28;20187;-56
2024/02/12 01:20:07;;;;;;;3.22;1.23;;;22.40;35.90;;;;;;5075305;28;20314;-56
2024/02/12 01:22:34;;;;;;;3.97;1.40;;;22.40;36.00;;;;;;5075073;28;20221;-57
2024/02/12 01:25:04;;;;;;;3.13;1.23;;;22.40;36.00;;;;;;5075176;28;20306;-56
2024/02/12 01:27:31;;;;;;;1.95;1.10;;;22.40;36.00;;;;;;5074748;28;20413;-57
2024/02/12 01:29:58;;;;;;;4.18;1.30;;;22.40;36.00;;;;;;5074680;28;20241;-55
2024/02/12 01:32:26;;;;;;;2.45;1.23;;;22.40;36.00;;;;;;5073668;28;20202;-58
2024/02/12 01:34:52;;;;;;;3.08;1.27;;;22.30;36.00;;;;;;5074528;28;20253;-59
2024/02/12 01:37:22;;;;;;;3.95;1.20;;;22.40;36.10;;;;;;5074776;28;20191;-56
2024/02/12 01:39:51;;;;;;;2.28;1.00;;;22.40;36.00;;;;;;5075026;28;20218;-55
2024/02/12 01:42:19;;;;;;;2.83;1.10;;;22.40;36.00;;;;;;5074359;28;20644;-58
2024/02/12 01:44:56;;;;;;;2.60;1.10;;;22.50;36.00;;;;;;5074552;28;20229;-55
2024/02/12 01:47:23;;;;;;;2.53;1.20;;;22.50;36.00;;;;;;5073620;28;20254;-55
2024/02/12 01:49:52;;;;;;;2.05;1.15;;;22.50;36.00;;;;;;5074674;28;20301;-56
2024/02/12 01:52:19;;;;;;;3.05;1.10;;;22.50;36.60;;;;;;5074839;28;20610;-54
2024/02/12 01:54:46;;;;;;;2.17;1.00;;;22.50;35.90;;;;;;5074240;28;20281;-54
2024/02/12 01:57:13;;;;;;;3.42;1.08;;;22.60;35.90;;;;;;5074496;28;20360;-56
2024/02/12 01:59:42;;;;;;;4.90;1.23;;;22.60;35.80;;;;;;5074579;28;20624;-58
2024/02/12 02:02:09;;;;;;;2.45;1.00;;;22.60;35.80;;;;;;5074392;28;20191;-56
2024/02/12 02:04:37;;;;;;;2.10;1.13;;;22.60;35.70;;;;;;5074374;28;20219;-59
2024/02/12 02:07:06;;;;;;;2.42;0.82;;;22.60;35.60;;;;;;5074641;28;20198;-56
2024/02/12 02:09:34;;;;;;;2.05;0.93;;;22.70;35.70;;;;;;5074358;28;20246;-54
2024/02/12 02:12:01;;;;;;;3.47;0.98;;;22.60;35.60;;;;;;5074221;28;20223;-58
2024/02/12 02:14:28;;;;;;;1.88;1.08;;;22.60;35.70;;;;;;5074154;28;20234;-56
2024/02/12 02:16:57;;;;;;;1.95;1.17;;;22.50;35.70;;;;;;5074165;28;20218;-58
2024/02/12 02:19:26;;;;;;;2.28;0.95;;;22.50;35.70;;;;;;5074108;28;20221;-58
2024/02/12 02:21:53;;;;;;;1.55;1.00;;;22.40;35.70;;;;;;5073716;28;20433;-57
2024/02/12 02:24:21;;;;;;;3.42;1.05;;;22.40;35.80;;;;;;5074005;28;20221;-56
2024/02/12 02:26:48;;;;;;;2.45;0.98;;;22.40;35.90;;;;;;5073913;28;20265;-55
2024/02/12 02:29:15;;;;;;;1.67;1.00;;;22.40;35.90;;;;;;5073928;28;20234;-56
2024/02/12 02:31:42;;;;;;;1.98;0.85;;;22.40;35.90;;;;;;5074387;28;20273;-56
2024/02/12 02:34:09;;;;;;;2.65;1.00;;;22.40;35.90;;;;;;5073763;28;20234;-59
2024/02/12 02:36:36;;;;;;;2.78;1.08;;;22.40;35.90;;;;;;5073391;28;20567;-56
2024/02/12 02:39:04;;;;;;;2.78;1.17;;;22.40;35.90;;;;;;5073666;28;20269;-55
2024/02/12 02:41:33;;;;;;;4.18;1.20;;;22.30;35.90;;;;;;5073322;28;20183;-56
2024/02/12 02:44:01;;;;;;;2.90;0.95;;;22.30;35.90;;;;;;5073579;28;20616;-58
2024/02/12 02:46:28;;;;;;;3.03;1.10;;;22.30;35.90;;;;;;5073527;28;20272;-58
2024/02/12 02:48:55;;;;;;;1.92;0.77;;;22.40;35.90;;;;;;5073200;28;20225;-55
2024/02/12 02:51:27;;;;;;;1.52;1.00;;;22.40;35.90;;;;;;5073326;28;20194;-58
2024/02/12 02:53:55;;;;;;;2.28;1.20;;;22.40;35.90;;;;;;5073278;28;20238;-55
2024/02/12 02:56:22;;;;;;;3.10;1.00;;;22.40;35.90;;;;;;5073341;28;20194;-56
2024/02/12 02:58:51;;;;;;;3.38;1.10;;;22.50;35.90;;;;;;5073016;28;20222;-54
2024/02/12 03:01:19;;;;;;;2.92;0.98;;;22.50;35.90;;;;;;5072989;28;20198;-55
2024/02/12 03:03:48;;;;;;;1.55;0.65;;;22.50;35.80;;;;;;5073271;28;20198;-56
2024/02/12 03:06:15;;;;;;;2.70;1.00;;;22.50;35.70;;;;;;5073131;28;20202;-56
2024/02/12 03:08:42;;;;;;;2.42;0.90;;;22.50;35.70;;;;;;5072685;28;20650;-58
2024/02/12 03:11:09;;;;;;;2.92;1.00;;;22.50;35.60;;;;;;5073061;28;20213;-55
2024/02/12 03:13:36;;;;;;;2.17;1.00;;;22.60;35.70;;;;;;5072423;28;20310;-56
2024/02/12 03:16:05;;;;;;;2.15;1.08;;;22.60;35.60;;;;;;5072906;28;20190;-54
2024/02/12 03:18:32;;;;;;;2.58;1.17;;;22.60;35.60;;;;;;5072658;28;20187;-58
2024/02/12 03:20:59;;;;;;;3.85;1.20;;;22.60;35.50;;;;;;5072667;28;20302;-56
2024/02/12 03:23:26;;;;;;;2.45;1.20;;;22.60;35.50;;;;;;5072871;28;20194;-53
2024/02/12 03:25:52;;;;;;;3.42;1.20;;;22.60;35.60;;;;;;5073119;28;20305;-56
2024/02/12 03:28:19;;;;;;;1.73;0.80;;;22.50;35.60;;;;;;5072525;28;20309;-54
2024/02/12 03:30:46;;;;;;;1.17;0.80;;;22.50;35.60;;;;;;5072667;28;20228;-54
2024/02/12 03:33:15;;;;;;;4.50;1.15;;;22.40;35.60;;;;;;5072640;28;20194;-56
2024/02/12 03:35:42;;;;;;;4.00;1.05;;;22.40;35.70;;;;;;5072466;28;20643;-55
2024/02/12 03:38:09;;;;;;;3.90;0.93;;;22.40;35.70;;;;;;5072626;28;20269;-58
2024/02/12 03:40:36;;;;;;;1.58;0.95;;;22.40;35.80;;;;;;5072481;28;20599;-57
2024/02/12 03:43:04;;;;;;;2.75;1.10;;;22.40;35.80;;;;;;5072294;28;20194;-56
2024/02/12 03:45:34;;;;;;;2.25;0.70;;;22.30;35.80;;;;;;5072433;28;20233;-58
2024/02/12 03:59:50;;;;;;;3.17;0.85;;;22.40;35.80;;;;;;5072647;28;20183;-55
2024/02/12 04:01:52;;;;;;;1.75;0.73;;;22.40;35.90;;;;;;5072457;28;20186;-56
2024/02/12 04:04:19;;;;;;;1.98;0.88;;;22.40;35.90;;;;;;5072487;28;20301;-56
2024/02/12 04:06:47;;;;;;;2.60;0.80;;;22.40;35.90;;;;;;5072521;28;20215;-57
2024/02/12 04:09:14;;;;;;;2.65;1.10;;;22.40;35.80;;;;;;5072411;28;20257;-55
2024/02/12 04:11:41;;;;;;;2.42;1.00;;;22.40;35.80;;;;;;5074744;28;20191;-56
2024/02/12 04:14:09;;;;;;;1.55;0.73;;;22.40;35.70;;;;;;5076076;28;20276;-55
2024/02/12 04:16:36;;;;;;;2.78;0.88;;;22.50;35.70;;;;;;5076106;28;20660;-56
2024/02/12 04:19:04;;;;;;;2.17;0.88;;;22.50;35.70;;;;;;5076330;28;20218;-54
2024/02/12 04:21:32;;;;;;;2.00;0.80;;;22.50;35.60;;;;;;5076289;28;20187;-55
2024/02/12 04:24:03;;;;;;;2.80;0.93;;;22.50;35.60;;;;;;5075996;28;20846;-56
2024/02/12 04:26:30;;;;;;;1.35;0.90;;;22.60;35.60;;;;;;5075903;28;20187;-55
2024/02/12 04:28:58;;;;;;;3.60;0.95;;;22.60;35.50;;;;;;5075920;28;20226;-56
2024/02/12 04:31:27;;;;;;;2.70;1.10;;;22.60;35.40;;;;;;5076457;28;20198;-56
2024/02/12 04:33:54;;;;;;;1.20;0.90;;;22.60;35.40;;;;;;5076020;28;20244;-56
2024/02/12 04:36:23;;;;;;;2.75;0.95;;;22.50;35.40;;;;;;5076165;28;20300;-55
2024/02/12 04:38:50;;;;;;;2.30;0.80;;;22.50;35.50;;;;;;5075948;28;20184;-55
2024/02/12 04:41:19;;;;;;;1.73;0.88;;;22.50;36.20;;;;;;5075906;28;20191;-56
2024/02/12 04:43:47;;;;;;;2.65;1.00;;;22.40;35.50;;;;;;5075848;28;20237;-56
2024/02/12 04:46:14;;;;;;;2.17;0.93;;;22.40;35.60;;;;;;5075797;28;20209;-55
2024/02/12 04:48:41;;;;;;;2.03;0.90;;;22.40;36.40;;;;;;5075824;28;20271;-54
2024/02/12 04:51:09;;;;;;;1.88;0.77;;;22.40;35.70;;;;;;5075656;28;20211;-56
2024/02/12 04:53:38;;;;;;;1.75;0.80;;;22.40;35.70;;;;;;5075700;28;20199;-55
2024/02/12 04:56:07;;;;;;;2.35;0.80;;;22.30;35.70;;;;;;5075842;28;20237;-54
2024/02/12 04:58:36;;;;;;;1.88;0.80;;;22.30;35.80;;;;;;5075580;28;20195;-59
2024/02/12 05:01:04;;;;;;;1.98;0.90;;;22.30;35.80;;;;;;5075474;28;20301;-55
2024/02/12 05:03:33;;;;;;;3.35;0.98;;;22.30;35.80;;;;;;5075423;28;20195;-54
2024/02/12 05:06:00;;;;;;;2.35;0.77;;;22.30;35.80;;;;;;5075716;28;20218;-55
2024/02/12 05:08:27;;;;;;;3.63;0.82;;;22.30;35.80;;;;;;5075081;28;20728;-55
2024/02/12 05:10:56;;;;;;;1.50;0.70;;;22.40;35.90;;;;;;5075172;28;20215;-55
2024/02/12 05:13:24;;;;;;;1.70;0.70;;;22.40;35.80;;;;;;5075191;28;20676;-56
2024/02/12 05:15:53;;;;;;;3.30;0.70;;;22.40;35.80;;;;;;5075368;28;20261;-55
2024/02/12 05:23:44;;;;;;;2.03;0.90;;;22.40;35.70;;;;;;5075263;28;20182;-55
2024/02/12 05:26:11;;;;;;;1.48;0.70;;;22.50;35.70;;;;;;5075292;28;20223;-55
2024/02/12 05:28:38;;;;;;;2.15;0.82;;;22.50;35.70;;;;;;5074899;28;20276;-55
2024/02/12 05:31:08;;;;;;;2.92;0.80;;;22.50;35.70;;;;;;5075537;28;20307;-56
2024/02/12 05:33:36;;;;;;;2.15;0.93;;;22.50;35.60;;;;;;5074680;28;20575;-55
2024/02/12 05:36:04;;;;;;;1.38;0.70;;;22.50;35.50;;;;;;5075024;28;20240;-56
2024/02/12 05:38:31;;;;;;;2.08;0.85;;;22.50;35.50;;;;;;5074863;28;20270;-54
2024/02/12 05:40:58;;;;;;;1.67;0.70;;;22.50;35.40;;;;;;5075032;28;20310;-55
2024/02/12 05:43:25;;;;;;;2.10;0.75;;;22.50;35.50;;;;;;5074523;28;20720;-56
2024/02/12 05:45:52;;;;;;;1.20;0.55;;;22.50;35.50;;;;;;5075074;28;20219;-55
2024/02/12 05:48:21;;;;;;;1.77;0.90;;;22.40;35.50;;;;;;5074710;28;20187;-55
2024/02/12 05:50:48;;;;;;;1.45;0.80;;;22.40;35.60;;;;;;5074637;28;20219;-55
2024/02/12 05:53:15;;;;;;;1.33;0.70;;;22.40;35.70;;;;;;5074690;28;20224;-55
2024/02/12 05:55:43;;;;;;;2.35;0.80;;;22.40;35.70;;;;;;5074918;28;20231;-55
2024/02/12 05:58:10;;;;;;;1.70;0.77;;;22.30;35.70;;;;;;5074526;28;20636;-56
2024/02/12 06:00:37;;;;;;;2.33;0.85;;;22.30;35.80;;;;;;5074551;28;20226;-58
2024/02/12 06:03:04;;;;;;;4.03;0.80;;;22.30;35.80;;;;;;5074142;28;20284;-52
2024/02/12 06:05:33;;;;;;;1.75;0.73;;;22.30;35.80;;;;;;5074485;28;20218;-55
2024/02/12 06:07:59;;;;;;;1.27;0.70;;;22.30;35.80;;;;;;5074315;28;20269;-56
2024/02/12 06:10:26;;;;;;;1.88;0.60;;;22.30;35.90;;;;;;5074494;28;20585;-56
2024/02/12 06:12:53;;;;;;;1.90;0.80;;;22.30;35.80;;;;;;5074199;28;20198;-56
2024/02/12 06:15:20;;;;;;;1.15;0.60;;;22.30;35.90;;;;;;5074212;28;20325;-56
2024/02/12 06:17:47;;;;;;;3.35;0.93;;;22.30;35.80;;;;;;5073742;28;20258;-57
2024/02/12 06:20:14;;;;;;;2.20;0.95;;;22.30;35.80;;;;;;5074143;28;20258;-55
2024/02/12 06:22:43;;;;;;;2.22;1.08;;;22.40;35.80;;;;;;5073979;28;20277;-56
2024/02/12 06:25:10;;;;;;;1.77;0.73;;;22.40;35.80;;;;;;5073856;28;20788;-54
2024/02/12 06:27:37;;;;;;;2.63;0.90;;;22.40;35.80;;;;;;5073888;28;20193;-53
2024/02/12 06:30:04;;;;;;;2.08;1.10;;;22.40;35.70;;;;;;5073479;28;20325;-54
2024/02/12 06:32:31;;;;;;;1.42;0.90;;;22.50;35.70;;;;;;5073761;28;20571;-55
2024/02/12 06:34:58;;;;;;;2.05;0.95;;;22.50;35.60;;;;;;5073231;28;20226;-55
2024/02/12 06:37:25;;;;;;;1.75;0.88;;;22.50;35.60;;;;;;5073712;28;20195;-56
2024/02/12 06:39:53;;;;;;;1.83;0.75;;;22.50;35.60;;;;;;5073780;28;20211;-56
2024/02/12 06:42:20;;;;;;;2.03;0.70;;;22.50;35.50;;;;;;5073565;28;20278;-55
2024/02/12 06:44:47;;;;;;;1.83;0.68;;;22.60;35.50;;;;;;5073604;28;20221;-54
2024/02/12 06:47:14;;;;;;;3.25;1.13;;;22.60;35.40;;;;;;5073515;28;20645;-57
2024/02/12 06:49:45;;;;;;;1.42;0.63;;;22.60;35.40;;;;;;5073459;28;20607;-55
2024/02/12 06:52:12;;;;;;;2.28;0.90;;;22.50;35.40;;;;;;5073384;28;20191;-55
2024/02/12 06:54:38;;;;;;;2.13;0.90;;;22.50;35.50;;;;;;5073310;28;20231;-56
2024/02/12 06:57:07;;;;;;;2.22;0.80;;;22.50;35.60;;;;;;5073385;28;20227;-54
2024/02/12 06:59:34;;;;;;;1.40;0.90;;;22.40;35.50;;;;;;5073280;28;20219;-56
2024/02/12 07:02:00;;;;;;;1.88;0.82;;;22.40;35.60;;;;;;5073210;28;20273;-56
2024/02/12 07:04:27;;;;;;;1.70;1.02;;;22.30;35.60;;;;;;5073207;28;20328;-55
2024/02/12 07:06:54;;;;;;;1.33;0.70;;;22.30;35.60;;;;;;5073068;28;20537;-55
2024/02/12 07:09:22;;;;;;;1.42;0.90;;;22.30;35.70;;;;;;5073059;28;20226;-55
2024/02/12 07:11:49;;;;;;;1.88;0.75;;;22.30;35.70;;;;;;5072847;28;20198;-56
2024/02/12 07:14:17;;;;;;;1.58;0.73;;;22.30;35.70;;;;;;5072970;28;20191;-56
2024/02/12 07:16:45;;;;;;;1.10;0.70;;;22.30;35.70;;;;;;5072937;28;20219;-56
2024/02/12 07:19:12;;;;;;;1.63;0.82;;;22.20;35.70;;;;;;5072562;28;20187;-55
2024/02/12 07:21:39;;;;;;;1.15;0.90;;;22.30;35.80;;;;;;5072972;28;20190;-55
2024/02/12 07:24:06;;;;;;;2.75;0.90;;;22.30;35.80;;;;;;5072500;28;20642;-56
2024/02/12 07:26:33;;;;;;;2.78;1.10;;;22.30;35.80;;;;;;5072833;28;20641;-58
2024/02/12 07:29:00;;;;;;;1.60;0.90;;;22.30;35.70;;;;;;5072624;28;20333;-55
2024/02/12 07:31:28;;;;;;;1.83;0.90;;;22.30;35.70;;;;;;5073054;28;20201;-56
2024/02/12 07:33:55;;;;;;;1.40;0.73;;;22.40;35.70;;;;;;5072460;28;20187;-53
2024/02/12 07:36:22;;;;;;;2.03;1.00;;;22.40;35.60;;;;;;5072518;28;20724;-54
2024/02/12 07:38:49;;;;;;;1.60;1.08;;;22.40;35.60;;;;;;5072979;28;20278;-56
2024/02/12 07:41:16;;;;;;;1.65;1.00;;;22.40;35.50;;;;;;5072929;28;20221;-57
2024/02/12 07:43:43;;;;;;;1.75;0.80;;;22.40;35.50;;;;;;5072631;28;20229;-53
2024/02/12 07:46:11;;;;;;;2.13;0.90;;;22.50;35.50;;;;;;5071674;28;20708;-55
2024/02/12 07:48:41;;;;;;;1.30;0.80;;;22.40;35.40;;;;;;5072540;28;20201;-55
2024/02/12 07:51:09;;;;;;;1.77;0.80;;;22.50;35.40;;;;;;5072674;28;20305;-56
2024/02/12 07:53:38;;;;;;;1.42;0.80;;;22.50;35.40;;;;;;5072474;28;20256;-56
2024/02/12 07:56:07;;;;;;;1.77;1.10;;;22.50;35.20;;;;;;5072600;28;20253;-55
2024/02/12 07:58:33;;;;;;;1.27;0.80;;;22.50;35.20;;;;;;5072116;28;20566;-53
2024/02/12 08:01:01;;;;;;;0.98;0.70;;;22.50;35.20;;;;;;5072554;28;20242;-58
2024/02/12 08:03:28;;;;;;;1.05;0.63;;;22.50;35.30;;;;;;5072416;28;20195;-57
2024/02/12 08:05:57;;;;;;;1.75;0.85;;;22.40;35.40;;;;;;5072505;28;20219;-57
2024/02/12 08:08:23;;;;;;;1.45;0.80;;;22.40;35.40;;;;;;5072079;28;20739;-58
2024/02/12 08:10:50;;;;;;;1.30;0.90;;;22.30;35.40;;;;;;5072395;28;20301;-57
2024/02/12 08:13:17;;;;;;;1.52;0.63;;;22.30;35.50;;;;;;5072033;28;20589;-58
2024/02/12 08:15:44;;;;;;;1.77;0.80;;;22.30;35.50;;;;;;5072018;28;20226;-56
2024/02/12 08:18:12;;;;;;;1.83;0.73;;;22.30;35.50;;;;;;5071941;28;20557;-57
2024/02/12 08:20:39;;;;;;;1.65;0.70;;;22.20;35.50;;;;;;5072538;28;20224;-59
2024/02/12 08:23:07;;;;;;;1.23;0.70;;;22.30;35.60;;;;;;5072231;28;20274;-58
2024/02/12 08:25:38;;;;;;;1.50;0.77;;;22.20;35.50;;;;;;5072313;28;20276;-57
2024/02/12 08:28:07;;;;;;;2.10;0.80;;;22.20;35.50;;;;;;5071997;28;20234;-58
2024/02/12 08:30:34;;;;;;;1.10;0.68;;;22.20;35.60;;;;;;5072253;28;20215;-59
2024/02/12 08:33:01;;;;;;;1.55;0.80;;;22.30;35.60;;;;;;5072444;28;20286;-57
2024/02/12 08:35:28;;;;;;;2.20;1.05;;;22.30;35.50;;;;;;5071809;28;20232;-58
2024/02/12 08:37:55;;;;;;;2.13;0.98;;;22.30;35.50;;;;;;5072056;28;20287;-57
2024/02/12 08:40:24;;;;;;;1.55;0.88;;;22.30;35.50;;;;;;5072061;28;20219;-56
2024/02/12 08:42:51;;;;;;;1.80;0.88;;;22.40;35.50;;;;;;5071704;28;20187;-58
2024/02/12 08:45:18;;;;;;;2.33;0.90;;;22.40;35.40;;;;;;5071805;28;20246;-56
2024/02/12 08:47:46;;;;;;;2.17;1.20;;;22.40;35.40;;;;;;5072045;28;20275;-58
2024/02/12 08:50:13;;;;;;;2.47;1.10;;;22.40;35.30;;;;;;5071958;28;20301;-56
2024/02/12 08:52:40;;;;;;;3.45;1.10;;;22.40;35.20;;;;;;5072132;28;20195;-58
2024/02/12 08:55:10;;;;;;;1.10;0.80;;;22.40;35.20;;;;;;5071870;28;20693;-58
2024/02/12 08:57:41;;;;;;;2.03;1.02;;;22.50;35.20;;;;;;5074095;28;20278;-57
2024/02/12 09:00:10;;;;;;;2.13;1.02;;;22.50;35.20;;;;;;5075567;28;20219;-57
2024/02/12 09:02:37;;;;;;;2.55;1.10;;;22.50;35.10;;;;;;5075191;28;20278;-56
2024/02/12 09:05:10;;;;;;;1.77;0.93;;;22.50;35.10;;;;;;5075484;28;20223;-54
2024/02/12 09:07:37;;;;;;;2.90;1.10;;;22.50;35.10;;;;;;5075142;28;20244;-56
2024/02/12 09:10:06;;;;;;;3.70;1.05;;;22.50;35.20;;;;;;5075316;28;20221;-57
2024/02/12 09:12:37;;;;;;;1.80;1.17;;;22.40;35.10;;;;;;5075616;28;20194;-58
2024/02/12 09:15:07;;;;;;;1.80;1.10;;;22.40;35.30;;;;;;5075216;28;20269;-58
2024/02/12 09:17:34;;;;;;;3.63;1.25;;;22.40;35.40;;;;;;5075555;28;20575;-58
2024/02/12 09:20:02;;;;;;;2.58;1.42;;;22.30;35.30;;;;;;5075240;28;20311;-58
2024/02/12 09:22:29;;;;;;;2.60;1.10;;;22.30;35.40;;;;;;5075192;28;20193;-55
2024/02/12 09:24:56;;;;;;;2.70;1.27;;;22.30;35.50;;;;;;5074853;28;20723;-58
2024/02/12 09:27:27;;;;;;;1.80;0.85;;;22.20;35.40;;;;;;5074825;28;20697;-57
2024/02/12 09:29:54;;;;;;;1.77;0.98;;;22.20;35.40;;;;;;5074675;28;20257;-54
2024/02/12 09:32:22;;;;;;;1.48;1.02;;;22.20;35.40;;;;;;5074901;28;20305;-58
2024/02/12 09:34:49;;;;;;;1.95;1.15;;;22.20;35.40;;;;;;5074706;28;20215;-55
2024/02/12 09:37:18;;;;;;;1.55;1.00;;;22.20;35.50;;;;;;5074610;28;20211;-55
2024/02/12 09:39:45;;;;;;;3.28;0.98;;;22.30;35.50;;;;;;5074632;28;20215;-55
2024/02/12 09:42:14;;;;;;;3.45;1.40;;;22.30;35.40;;;;;;5074459;28;20186;-58
2024/02/12 09:44:47;;;;;;;4.70;1.20;;;22.30;35.40;;;;;;5074772;28;20224;-56
2024/02/12 09:47:17;;;;;;;4.22;1.13;;;22.30;35.30;;;;;;5074677;28;20195;-54
2024/02/12 09:49:45;;;;;;;1.98;1.30;;;22.40;35.40;;;;;;5074619;28;20218;-58
2024/02/12 09:52:13;;;;;;;2.45;1.10;;;22.40;36.00;;;;;;5074528;28;20191;-58
2024/02/12 09:54:41;;;;;;;4.13;1.10;;;22.40;35.30;;;;;;5074577;28;20211;-56
2024/02/12 09:57:09;;;;;;;1.70;0.93;;;22.40;35.20;;;;;;5074765;28;20223;-57
2024/02/12 09:59:36;;;;;;;1.83;0.95;;;22.40;35.10;;;;;;5074384;28;20260;-58
2024/02/12 10:02:03;;;;;;;2.67;1.08;;;22.40;35.10;;;;;;5074325;28;20282;-54
2024/02/12 10:04:30;;;;;;;2.20;1.10;;;22.50;35.10;;;;;;5074370;28;20281;-56
2024/02/12 10:06:59;;;;;;;3.67;1.02;;;22.50;35.00;;;;;;5074049;28;20286;-53
2024/02/12 10:09:26;;;;;;;2.13;0.90;;;22.50;35.00;;;;;;5073340;28;20279;-56
2024/02/12 10:11:54;;;;;;;2.03;1.10;;;22.50;34.90;;;;;;5074190;28;20187;-56
2024/02/12 10:14:30;;;;;;;2.35;1.08;;;22.50;34.90;;;;;;5073872;28;20179;-55
2024/02/12 10:17:00;;;;;;;1.40;0.98;;;22.50;35.00;;;;;;5073813;28;20589;-55
2024/02/12 10:19:27;;;;;;;2.88;1.27;;;22.40;34.90;;;;;;5074073;28;20191;-55
2024/02/12 10:21:54;;;;;;;1.50;0.90;;;22.40;34.90;;;;;;5074008;28;20209;-54
2024/02/12 10:24:23;;;;;;;2.00;0.90;;;22.40;35.00;;;;;;5073887;28;20191;-56
2024/02/12 10:26:50;;;;;;;1.58;0.90;;;22.30;35.00;;;;;;5073692;28;20264;-58
2024/02/12 10:29:18;;;;;;;1.45;1.05;;;22.30;35.20;;;;;;5073591;28;20226;-59
2024/02/12 10:31:46;;;;;;;2.25;0.93;;;22.30;35.30;;;;;;5073721;28;20557;-56
2024/02/12 10:34:16;;;;;;;1.98;0.85;;;22.30;35.50;;;;;;5073532;28;20239;-55
2024/02/12 10:36:45;;;;;;;2.70;0.60;;;22.30;36.60;;;;;;5073692;28;20301;-55
2024/02/12 10:39:14;;;;;;;6.15;1.10;;;22.30;36.30;;;;;;5073722;28;20281;-55
2024/02/12 10:41:47;;;;;;;1.98;1.10;;;22.30;36.80;;;;;;5073648;28;20282;-53
2024/02/12 10:44:15;;;;;;;2.90;1.10;;;22.30;37.50;;;;;;5073336;28;20644;-56
2024/02/12 10:46:42;;;;;;;2.72;0.85;;;22.30;38.40;;;;;;5073479;28;20198;-53
2024/02/12 10:49:10;;;;;;;3.65;0.93;;;22.40;38.40;;;;;;5073542;28;20229;-56
2024/02/12 10:51:39;;;;;;;2.20;0.90;;;22.40;38.40;;;;;;5073295;28;20219;-55
2024/02/12 10:54:07;;;;;;;1.98;0.63;;;22.40;38.40;;;;;;5073014;28;20748;-54
2024/02/12 10:56:35;;;;;;;5.13;1.05;;;22.40;38.40;;;;;;5073133;28;20693;-54
2024/02/12 10:59:04;;;;;;;1.75;0.90;;;22.40;38.40;;;;;;5073303;28;20202;-56
2024/02/12 11:01:32;;;;;;;3.45;0.88;;;22.40;38.40;;;;;;5073094;28;20731;-55
2024/02/12 11:04:01;;;;;;;4.82;1.38;;;22.50;38.50;;;;;;5073176;28;20183;-55
2024/02/12 11:06:28;;;;;;;3.58;0.82;;;22.50;38.50;;;;;;5073343;28;20249;-55
2024/02/12 11:08:56;;;;;;;3.55;0.88;;;22.50;38.30;;;;;;5073134;28;20190;-55
2024/02/12 11:11:28;;;;;;;3.33;0.88;;;22.50;38.10;;;;;;5073129;28;20226;-55
2024/02/12 11:14:01;;;;;;;2.63;1.15;;;22.50;37.90;;;;;;5073008;28;20191;-54
2024/02/12 11:16:30;;;;;;;3.10;0.98;;;22.50;37.80;;;;;;5072674;28;20238;-52
2024/02/12 11:18:58;;;;;;;2.92;0.80;;;22.50;37.60;;;;;;5072998;28;20205;-55
2024/02/12 11:21:29;;;;;;;2.55;0.85;;;22.50;37.60;;;;;;5072647;28;20759;-56
2024/02/12 11:24:07;;;;;;;2.85;0.90;;;22.50;37.50;;;;;;5072893;28;20201;-55
2024/02/12 11:26:37;;;;;;;2.53;0.80;;;22.40;37.40;;;;;;5072917;28;20226;-54
2024/02/12 11:29:06;;;;;;;4.63;1.10;;;22.40;37.30;;;;;;5072628;28;20246;-53
2024/02/12 11:31:37;;;;;;;2.88;0.95;;;22.40;37.30;;;;;;5072945;28;20222;-56
2024/02/12 11:34:11;;;;;;;2.97;0.57;;;22.30;37.20;;;;;;5072706;28;20190;-53
2024/02/12 11:36:38;;;;;;;1.58;0.70;;;22.30;37.20;;;;;;5072878;28;20253;-55
2024/02/12 11:39:08;;;;;;;2.38;1.25;;;22.30;37.10;;;;;;5072623;28;20535;-55
2024/02/12 11:41:35;;;;;;;2.88;0.77;;;22.30;37.10;;;;;;5072842;28;20218;-53
2024/02/12 11:44:05;;;;;;;2.80;0.98;;;22.20;37.00;;;;;;5072651;28;20229;-53
2024/02/12 11:46:35;;;;;;;2.78;0.82;;;22.20;36.90;;;;;;5072834;28;20249;-52
2024/02/12 11:49:06;;;;;;;3.90;0.80;;;22.20;36.90;;;;;;5072558;28;20381;-55
2024/02/12 11:51:34;;;;;;;1.00;0.55;;;22.20;36.90;;;;;;5072863;28;20221;-56
2024/02/12 11:54:01;;;;;;;2.78;0.70;;;22.20;36.80;;;;;;5072197;28;20229;-55
2024/02/12 11:56:29;;;;;;;1.73;0.77;;;22.30;36.70;;;;;;5072336;28;20237;-54
2024/02/12 11:58:57;;;;;;;3.38;1.00;;;22.30;36.70;;;;;;5072460;28;20191;-53
2024/02/12 12:01:24;;;;;;;2.40;0.82;;;22.30;36.60;;;;;;5072225;28;20767;-51
2024/02/12 12:03:53;;;;;;;3.00;0.70;;;22.30;36.50;;;;;;5072449;28;20221;-55
2024/02/12 12:06:22;;;;;;;3.63;0.70;;;22.30;36.30;;;;;;5072232;28;20690;-55
2024/02/12 12:08:49;;;;;;;2.17;0.98;;;22.40;36.30;;;;;;5072169;28;20260;-55
2024/02/12 12:11:20;;;;;;;2.60;1.00;;;22.40;36.30;;;;;;5072529;28;20301;-54
2024/02/12 12:13:47;;;;;;;1.05;0.60;;;22.40;36.20;;;;;;5072423;28;20198;-56
2024/02/12 12:16:16;;;;;;;1.85;0.80;;;22.40;36.10;;;;;;5072038;28;20386;-55
2024/02/12 12:18:43;;;;;;;4.70;1.10;;;22.40;35.90;;;;;;5072195;28;20210;-54
2024/02/12 12:21:11;;;;;;;2.58;0.70;;;22.40;35.90;;;;;;5072538;28;20632;-55
2024/02/12 12:23:39;;;;;;;2.08;0.90;;;22.40;35.80;;;;;;5072226;28;20282;-55
2024/02/12 12:26:07;;;;;;;2.05;0.70;;;22.50;35.80;;;;;;5072008;28;20715;-53
2024/02/12 12:28:36;;;;;;;2.03;0.50;;;22.50;35.70;;;;;;5072092;28;20222;-56
2024/02/12 12:31:04;;;;;;;1.60;0.70;;;22.40;35.60;;;;;;5072216;28;20309;-56
2024/02/12 12:33:32;;;;;;;3.40;0.85;;;22.40;35.70;;;;;;5075806;28;20199;-55
2024/02/12 12:35:59;;;;;;;1.40;0.70;;;22.40;35.80;;;;;;5075908;28;20210;-55
2024/02/12 12:38:27;;;;;;;3.25;0.90;;;22.30;35.70;;;;;;5075763;28;20556;-54
2024/02/12 12:40:56;;;;;;;1.45;0.75;;;22.30;35.70;;;;;;5076283;28;20218;-54
2024/02/12 12:43:23;;;;;;;2.95;0.93;;;22.30;35.80;;;;;;5075980;28;20186;-54
2024/02/12 12:45:52;;;;;;;1.17;0.68;;;22.20;35.70;;;;;;5076033;28;20218;-52
2024/02/12 12:48:22;;;;;;;2.20;0.80;;;22.20;35.60;;;;;;5075906;28;20277;-50
2024/02/12 12:50:49;;;;;;;1.10;0.70;;;22.20;35.60;;;;;;5075559;28;20599;-55
2024/02/12 12:53:15;;;;;;;2.88;0.77;;;22.20;35.50;;;;;;5075793;28;20552;-53
2024/02/12 12:55:44;;;;;;;1.75;0.80;;;22.10;35.50;;;;;;5075820;28;20321;-55
2024/02/12 12:58:11;;;;;;;1.23;0.60;;;22.20;35.50;;;;;;5075677;28;20233;-55
2024/02/12 13:00:40;;;;;;;1.58;0.70;;;22.20;35.50;;;;;;5075619;28;20218;-54
2024/02/12 13:03:07;;;;;;;1.98;0.65;;;22.30;35.50;;;;;;5075261;28;20183;-54
2024/02/12 13:05:35;;;;;;;1.25;0.60;;;22.30;35.40;;;;;;5075576;28;20215;-55
2024/02/12 13:08:03;;;;;;;1.30;0.70;;;22.30;35.40;;;;;;5075807;28;20195;-55